»·PEaware :: N232KW KBUR-KLAS

N232KW :: KBUR-KLAS

FLIGHT INFORMATION

Flight Status: Arrived
Operator: Privately registered:
United States
More flights under this callsign
Pilot: Sally S. (18014)
Aircraft: MOONEY M-20K/M ENCORE BRAVO
(M20T)
More flights by this aircraft type
Origin: KBUR Bob Hope-Burbank
United States
Destination: KLAS McCarran Intl
United States
More flights between these airports :: More routes between these airports
Route: +VNY3 DAG CRESO4
File this flight plan on PilotEdge
Remarks: I5 Rating
Altitude:
(Current/Filed)
11,000ft
Speed:
(Current/Filed)
175kts
Departed: 13-May-18 12:27 PM
Arrived: 13-May-18 01:41 PM
Distance/Time
Traveled:
193nm/1:14
Distance/Time
To Go:
Arrived

Flight Plot

Page will automatically refresh every two minutes.

Flight plan parsing failed; only flown route is shown


Map Options




Map Legend


Flown Route
Filed Route
Departure Airport
Arrival Airport
Navaid (VOR, NDB)
Fix

Horizontal Profiles

Position Reports

Time Latitude Longitude Heading Altitude Ground
Speed
13-May-18 11:51 34.200027 -118.358688 263 778ft 0kts
13-May-18 11:52 34.200027 -118.358688 263 778ft 0kts
13-May-18 11:53 34.200027 -118.358688 263 778ft 0kts
13-May-18 11:54 34.200027 -118.358688 263 778ft 0kts
13-May-18 11:55 34.200027 -118.358688 263 778ft 0kts
13-May-18 11:56 34.200027 -118.358688 263 778ft 0kts
13-May-18 11:57 34.200027 -118.358688 263 778ft 0kts
13-May-18 11:58 34.200027 -118.358688 263 778ft 0kts
13-May-18 11:59 34.200027 -118.358688 263 778ft 0kts
13-May-18 12:00 34.200027 -118.358688 263 778ft 0kts
13-May-18 12:01 34.200027 -118.358688 263 778ft 0kts
13-May-18 12:02 34.200027 -118.358688 263 778ft 0kts
13-May-18 12:03 34.200027 -118.358688 263 778ft 0kts
13-May-18 12:04 34.200027 -118.358688 263 778ft 0kts
13-May-18 12:05 34.200027 -118.358688 263 778ft 0kts
13-May-18 12:06 34.200027 -118.358688 263 778ft 0kts
13-May-18 12:07 34.200027 -118.358688 263 778ft 0kts
13-May-18 12:08 34.200027 -118.358688 263 778ft 0kts
13-May-18 12:09 34.200027 -118.358688 263 778ft 0kts
13-May-18 12:10 34.200027 -118.358688 263 778ft 0kts
13-May-18 12:11 34.200027 -118.358688 263 778ft 0kts
13-May-18 12:12 34.200027 -118.358688 263 778ft 0kts
13-May-18 12:13 34.200027 -118.358688 263 778ft 0kts
13-May-18 12:14 34.200027 -118.358688 263 778ft 0kts
13-May-18 12:15 34.200027 -118.358688 263 778ft 0kts
13-May-18 12:16 34.200027 -118.358688 263 778ft 0kts
13-May-18 12:17 34.200027 -118.358688 263 778ft 0kts
13-May-18 12:18 34.200027 -118.358688 263 778ft 0kts
13-May-18 12:19 34.200027 -118.358688 263 778ft 0kts
13-May-18 12:20 34.200027 -118.358688 263 778ft 0kts
13-May-18 12:21 34.200025 -118.358703 260 778ft 1kts
13-May-18 12:22 34.201438 -118.358671 350 778ft 23kts
13-May-18 12:23 34.209988 -118.360969 350 778ft 29kts
13-May-18 12:24 34.210960 -118.361043 31 778ft 0kts
13-May-18 12:25 34.210960 -118.361043 31 778ft 0kts
13-May-18 12:26 34.210793 -118.360069 161 778ft 18kts
13-May-18 12:27 34.186199 -118.355926 210 1605ft 114kts
13-May-18 12:28 34.166431 -118.378324 230 3134ft 111kts
13-May-18 12:29 34.177401 -118.399471 350 4336ft 130kts
13-May-18 12:30 34.209596 -118.404633 350 5864ft 123kts
13-May-18 12:31 34.240385 -118.412224 350 7111ft 124kts
13-May-18 12:32 34.271448 -118.418751 350 8304ft 125kts
13-May-18 12:33 34.302976 -118.424414 350 9468ft 127kts
13-May-18 12:34 34.334340 -118.429023 350 10570ft 129kts
13-May-18 12:35 34.368384 -118.422584 21 11018ft 174kts
13-May-18 12:36 34.411908 -118.397296 21 11021ft 199kts
13-May-18 12:37 34.450347 -118.351891 47 11005ft 214kts
13-May-18 12:38 34.487496 -118.294350 49 10976ft 220kts
13-May-18 12:39 34.524235 -118.235699 48 11008ft 219kts
13-May-18 12:40 34.560867 -118.177113 48 10996ft 220kts
13-May-18 12:41 34.594111 -118.123857 48 10997ft 220kts
13-May-18 12:42 34.629537 -118.065611 63 10988ft 224kts
13-May-18 12:43 34.639488 -117.991476 79 10993ft 227kts
13-May-18 12:44 34.647808 -117.916002 80 10987ft 227kts
13-May-18 12:45 34.655697 -117.843499 80 10979ft 227kts
13-May-18 12:46 34.663800 -117.768468 78 10981ft 221kts
13-May-18 12:47 34.680751 -117.699616 69 10988ft 215kts
13-May-18 12:48 34.697632 -117.633820 69 10995ft 214kts
13-May-18 12:49 34.714946 -117.566158 69 11000ft 213kts
13-May-18 12:50 34.732322 -117.498073 69 10999ft 214kts
13-May-18 12:51 34.749746 -117.429615 69 10999ft 214kts
13-May-18 12:52 34.767221 -117.360770 69 11000ft 214kts
13-May-18 12:53 34.784506 -117.292509 70 10995ft 213kts
13-May-18 12:54 34.801876 -117.223726 69 10989ft 213kts
13-May-18 12:55 34.819235 -117.154796 69 10980ft 214kts
13-May-18 12:56 34.836599 -117.085686 70 10972ft 214kts
13-May-18 12:57 34.853966 -117.016371 71 10967ft 214kts
13-May-18 12:58 34.871098 -116.947795 72 10964ft 213kts
13-May-18 12:59 34.888141 -116.879406 73 10963ft 212kts
13-May-18 13:00 34.904368 -116.814101 73 10963ft 212kts
13-May-18 13:01 34.921158 -116.746366 73 11013ft 209kts
13-May-18 13:02 34.937794 -116.679087 74 11065ft 209kts
13-May-18 13:03 34.954441 -116.611566 74 11065ft 210kts
13-May-18 13:04 34.976778 -116.546495 62 10878ft 218kts
13-May-18 13:05 35.006013 -116.480749 62 10389ft 223kts
13-May-18 13:06 35.033877 -116.417993 62 10071ft 211kts
13-May-18 13:07 35.058862 -116.361628 62 10072ft 202kts
13-May-18 13:08 35.083980 -116.304861 63 10074ft 200kts
13-May-18 13:09 35.108191 -116.250082 63 10516ft 183kts
13-May-18 13:10 35.131367 -116.197526 63 11073ft 185kts
13-May-18 13:11 35.156852 -116.139613 63 11073ft 198kts
13-May-18 13:12 35.183232 -116.079593 63 11072ft 201kts
13-May-18 13:13 35.209533 -116.019647 63 11072ft 202kts
13-May-18 13:14 35.235827 -115.959617 63 11072ft 202kts
13-May-18 13:15 35.262219 -115.899246 63 11071ft 202kts
13-May-18 13:16 35.287958 -115.840266 63 11064ft 202kts
13-May-18 13:17 35.315278 -115.781469 50 11057ft 204kts
13-May-18 13:18 35.353256 -115.730737 48 11051ft 204kts
13-May-18 13:19 35.390812 -115.680653 49 11046ft 204kts
13-May-18 13:20 35.429461 -115.629013 48 10608ft 218kts
13-May-18 13:21 35.470495 -115.574121 48 10066ft 215kts
13-May-18 13:22 35.509117 -115.522394 48 10063ft 204kts
13-May-18 13:23 35.546772 -115.471912 48 10063ft 201kts
13-May-18 13:24 35.584211 -115.421640 48 10063ft 201kts
13-May-18 13:25 35.621615 -115.371330 48 10063ft 201kts
13-May-18 13:26 35.658882 -115.320950 48 9439ft 219kts
13-May-18 13:27 35.699081 -115.266683 48 8445ft 209kts
13-May-18 13:28 35.736866 -115.215632 48 7458ft 202kts
13-May-18 13:29 35.773358 -115.166488 45 7059ft 192kts
13-May-18 13:30 35.809025 -115.119255 49 7050ft 191kts
13-May-18 13:31 35.851059 -115.084036 10 7036ft 197kts
13-May-18 13:32 35.903705 -115.074085 11 7036ft 199kts
13-May-18 13:33 35.958785 -115.063530 11 7035ft 204kts
13-May-18 13:34 36.014146 -115.052886 11 7031ft 206kts
13-May-18 13:35 36.071538 -115.041411 6 6324ft 209kts
13-May-18 13:36 36.122212 -115.041256 325 4768ft 183kts
13-May-18 13:37 36.150495 -115.078208 293 4261ft 148kts
13-May-18 13:38 36.148862 -115.125398 233 3450ft 147kts
13-May-18 13:39 36.117279 -115.146056 208 2696ft 114kts
13-May-18 13:40 36.094446 -115.159327 214 2183ft 65kts
13-May-18 13:41 36.089375 -115.163409 293 2183ft 0kts
13-May-18 13:42 36.089412 -115.164566 228 2183ft 13kts
13-May-18 13:43 36.086444 -115.166988 204 2183ft 0kts

Navigation Log

Ident Type
Flight plan parsing failed, navigation log unavailable